sensor_id;sensor_type;location;lat;lon;timestamp;temperature;humidity
32600;DHT22;19277;51.778;7.912;2023-05-13T00:00:28;20.30;69.20
32600;DHT22;19277;51.778;7.912;2023-05-13T00:02:53;20.30;69.50
32600;DHT22;19277;51.778;7.912;2023-05-13T00:05:19;20.30;69.10
32600;DHT22;19277;51.778;7.912;2023-05-13T00:07:44;20.30;68.80
32600;DHT22;19277;51.778;7.912;2023-05-13T00:10:10;20.30;68.80
32600;DHT22;19277;51.778;7.912;2023-05-13T00:12:37;20.30;68.80
32600;DHT22;19277;51.778;7.912;2023-05-13T00:15:03;20.30;68.80
32600;DHT22;19277;51.778;7.912;2023-05-13T00:17:28;20.30;68.50
32600;DHT22;19277;51.778;7.912;2023-05-13T00:19:54;20.30;68.80
32600;DHT22;19277;51.778;7.912;2023-05-13T00:22:20;20.30;68.60
32600;DHT22;19277;51.778;7.912;2023-05-13T00:24:45;20.30;68.40
32600;DHT22;19277;51.778;7.912;2023-05-13T00:27:11;20.30;68.10
32600;DHT22;19277;51.778;7.912;2023-05-13T00:29:37;20.30;68.20
32600;DHT22;19277;51.778;7.912;2023-05-13T00:32:02;20.20;68.30
32600;DHT22;19277;51.778;7.912;2023-05-13T00:34:28;20.20;68.50
32600;DHT22;19277;51.778;7.912;2023-05-13T00:36:53;20.30;68.30
32600;DHT22;19277;51.778;7.912;2023-05-13T00:39:19;20.20;68.20
32600;DHT22;19277;51.778;7.912;2023-05-13T00:41:45;20.20;68.30
32600;DHT22;19277;51.778;7.912;2023-05-13T00:44:10;20.20;68.00
32600;DHT22;19277;51.778;7.912;2023-05-13T00:46:36;20.20;67.90
32600;DHT22;19277;51.778;7.912;2023-05-13T00:49:03;20.20;68.20
32600;DHT22;19277;51.778;7.912;2023-05-13T00:51:30;20.20;68.10
32600;DHT22;19277;51.778;7.912;2023-05-13T00:53:58;20.20;68.00
32600;DHT22;19277;51.778;7.912;2023-05-13T00:56:25;20.20;68.20
32600;DHT22;19277;51.778;7.912;2023-05-13T00:58:50;20.20;67.90
32600;DHT22;19277;51.778;7.912;2023-05-13T01:01:47;20.20;67.90
32600;DHT22;19277;51.778;7.912;2023-05-13T01:12:58;20.10;68.70
32600;DHT22;19277;51.778;7.912;2023-05-13T01:15:26;20.10;69.00
32600;DHT22;19277;51.778;7.912;2023-05-13T01:17:58;20.20;69.20
32600;DHT22;19277;51.778;7.912;2023-05-13T01:20:26;20.10;68.70
32600;DHT22;19277;51.778;7.912;2023-05-13T01:22:52;20.10;69.10
32600;DHT22;19277;51.778;7.912;2023-05-13T01:25:18;20.10;69.80
32600;DHT22;19277;51.778;7.912;2023-05-13T01:27:43;20.10;69.40
32600;DHT22;19277;51.778;7.912;2023-05-13T01:30:10;20.10;69.60
32600;DHT22;19277;51.778;7.912;2023-05-13T01:32:36;20.10;69.50
32600;DHT22;19277;51.778;7.912;2023-05-13T01:35:03;20.10;69.70
32600;DHT22;19277;51.778;7.912;2023-05-13T01:37:29;20.10;69.80
32600;DHT22;19277;51.778;7.912;2023-05-13T01:39:55;20.10;69.80
32600;DHT22;19277;51.778;7.912;2023-05-13T01:42:27;20.10;69.60
32600;DHT22;19277;51.778;7.912;2023-05-13T01:44:53;20.10;69.50
32600;DHT22;19277;51.778;7.912;2023-05-13T01:47:18;20.00;70.00
32600;DHT22;19277;51.778;7.912;2023-05-13T01:49:44;20.00;70.00
32600;DHT22;19277;51.778;7.912;2023-05-13T01:52:09;20.00;70.10
32600;DHT22;19277;51.778;7.912;2023-05-13T01:54:35;20.00;70.00
32600;DHT22;19277;51.778;7.912;2023-05-13T01:57:01;20.00;70.20
32600;DHT22;19277;51.778;7.912;2023-05-13T01:59:27;20.00;70.20
32600;DHT22;19277;51.778;7.912;2023-05-13T02:01:53;20.00;70.30
32600;DHT22;19277;51.778;7.912;2023-05-13T02:04:18;20.00;70.40
32600;DHT22;19277;51.778;7.912;2023-05-13T02:06:44;20.00;70.50
32600;DHT22;19277;51.778;7.912;2023-05-13T02:09:09;19.90;70.20
32600;DHT22;19277;51.778;7.912;2023-05-13T02:11:35;19.90;70.50
32600;DHT22;19277;51.778;7.912;2023-05-13T02:14:00;19.80;70.70
32600;DHT22;19277;51.778;7.912;2023-05-13T02:16:26;19.80;70.70
32600;DHT22;19277;51.778;7.912;2023-05-13T02:18:52;19.80;70.90
32600;DHT22;19277;51.778;7.912;2023-05-13T02:21:17;19.80;70.70
32600;DHT22;19277;51.778;7.912;2023-05-13T02:23:43;19.80;70.80
32600;DHT22;19277;51.778;7.912;2023-05-13T02:26:08;19.80;70.80
32600;DHT22;19277;51.778;7.912;2023-05-13T02:28:34;19.80;70.60
32600;DHT22;19277;51.778;7.912;2023-05-13T02:30:59;19.80;70.50
32600;DHT22;19277;51.778;7.912;2023-05-13T02:33:25;19.70;70.90
32600;DHT22;19277;51.778;7.912;2023-05-13T02:35:51;19.70;71.00
32600;DHT22;19277;51.778;7.912;2023-05-13T02:38:17;19.80;70.90
32600;DHT22;19277;51.778;7.912;2023-05-13T02:40:42;19.80;70.80
32600;DHT22;19277;51.778;7.912;2023-05-13T02:43:08;19.80;70.80
32600;DHT22;19277;51.778;7.912;2023-05-13T02:45:34;19.70;70.90
32600;DHT22;19277;51.778;7.912;2023-05-13T02:47:59;19.70;71.00
32600;DHT22;19277;51.778;7.912;2023-05-13T02:50:25;19.70;71.00
32600;DHT22;19277;51.778;7.912;2023-05-13T02:52:51;19.70;70.80
32600;DHT22;19277;51.778;7.912;2023-05-13T02:55:17;19.70;70.60
32600;DHT22;19277;51.778;7.912;2023-05-13T02:57:42;19.70;70.90
32600;DHT22;19277;51.778;7.912;2023-05-13T03:00:08;19.60;71.00
32600;DHT22;19277;51.778;7.912;2023-05-13T03:02:36;19.60;71.00
32600;DHT22;19277;51.778;7.912;2023-05-13T03:05:02;19.60;71.20
32600;DHT22;19277;51.778;7.912;2023-05-13T03:07:28;19.60;71.30
32600;DHT22;19277;51.778;7.912;2023-05-13T03:09:53;19.60;71.40
32600;DHT22;19277;51.778;7.912;2023-05-13T03:12:19;19.60;71.40
32600;DHT22;19277;51.778;7.912;2023-05-13T03:14:45;19.60;71.20
32600;DHT22;19277;51.778;7.912;2023-05-13T03:17:10;19.60;71.20
32600;DHT22;19277;51.778;7.912;2023-05-13T03:19:37;19.60;71.20
32600;DHT22;19277;51.778;7.912;2023-05-13T03:22:04;19.50;71.40
32600;DHT22;19277;51.778;7.912;2023-05-13T03:24:30;19.50;71.00
32600;DHT22;19277;51.778;7.912;2023-05-13T03:26:56;19.50;71.20
32600;DHT22;19277;51.778;7.912;2023-05-13T03:29:22;19.50;71.30
32600;DHT22;19277;51.778;7.912;2023-05-13T03:31:48;19.50;71.30
32600;DHT22;19277;51.778;7.912;2023-05-13T03:34:14;19.50;71.60
32600;DHT22;19277;51.778;7.912;2023-05-13T03:36:40;19.50;71.70
32600;DHT22;19277;51.778;7.912;2023-05-13T03:39:06;19.40;71.60
32600;DHT22;19277;51.778;7.912;2023-05-13T03:41:31;19.40;71.60
32600;DHT22;19277;51.778;7.912;2023-05-13T03:43:57;19.40;71.50
32600;DHT22;19277;51.778;7.912;2023-05-13T03:46:23;19.40;71.60
32600;DHT22;19277;51.778;7.912;2023-05-13T03:48:51;19.40;71.20
32600;DHT22;19277;51.778;7.912;2023-05-13T03:51:17;19.40;71.20
32600;DHT22;19277;51.778;7.912;2023-05-13T03:53:43;19.40;71.40
32600;DHT22;19277;51.778;7.912;2023-05-13T03:56:08;19.40;71.10
32600;DHT22;19277;51.778;7.912;2023-05-13T03:58:34;19.30;71.60
32600;DHT22;19277;51.778;7.912;2023-05-13T04:00:59;19.30;71.70
32600;DHT22;19277;51.778;7.912;2023-05-13T04:03:25;19.40;71.80
32600;DHT22;19277;51.778;7.912;2023-05-13T04:05:51;19.40;71.60
32600;DHT22;19277;51.778;7.912;2023-05-13T04:08:17;19.50;71.50
32600;DHT22;19277;51.778;7.912;2023-05-13T04:10:43;19.50;71.20
32600;DHT22;19277;51.778;7.912;2023-05-13T04:13:10;19.50;71.50
32600;DHT22;19277;51.778;7.912;2023-05-13T04:15:36;19.50;71.20
32600;DHT22;19277;51.778;7.912;2023-05-13T04:18:02;19.50;71.30
32600;DHT22;19277;51.778;7.912;2023-05-13T04:20:27;19.50;71.40
32600;DHT22;19277;51.778;7.912;2023-05-13T04:22:53;19.60;71.20
32600;DHT22;19277;51.778;7.912;2023-05-13T04:25:19;19.60;71.30
32600;DHT22;19277;51.778;7.912;2023-05-13T04:27:44;19.80;70.90
32600;DHT22;19277;51.778;7.912;2023-05-13T04:30:12;19.90;70.50
32600;DHT22;19277;51.778;7.912;2023-05-13T04:32:38;20.00;70.00
32600;DHT22;19277;51.778;7.912;2023-05-13T04:35:05;20.10;69.90
32600;DHT22;19277;51.778;7.912;2023-05-13T04:37:31;20.20;69.30
32600;DHT22;19277;51.778;7.912;2023-05-13T04:39:56;20.30;69.30
32600;DHT22;19277;51.778;7.912;2023-05-13T04:42:22;20.30;69.20
32600;DHT22;19277;51.778;7.912;2023-05-13T04:44:48;20.40;69.10
32600;DHT22;19277;51.778;7.912;2023-05-13T04:47:14;20.40;68.90
32600;DHT22;19277;51.778;7.912;2023-05-13T04:49:39;20.50;68.60
32600;DHT22;19277;51.778;7.912;2023-05-13T04:52:05;20.60;68.40
32600;DHT22;19277;51.778;7.912;2023-05-13T04:54:31;20.60;68.30
32600;DHT22;19277;51.778;7.912;2023-05-13T04:56:56;20.70;68.00
32600;DHT22;19277;51.778;7.912;2023-05-13T04:59:22;20.70;68.10
32600;DHT22;19277;51.778;7.912;2023-05-13T05:01:47;20.80;68.20
32600;DHT22;19277;51.778;7.912;2023-05-13T05:04:13;20.90;68.10
32600;DHT22;19277;51.778;7.912;2023-05-13T05:06:39;21.00;67.60
32600;DHT22;19277;51.778;7.912;2023-05-13T05:09:04;21.10;67.70
32600;DHT22;19277;51.778;7.912;2023-05-13T05:11:30;21.10;67.50
32600;DHT22;19277;51.778;7.912;2023-05-13T05:13:56;21.20;67.30
32600;DHT22;19277;51.778;7.912;2023-05-13T05:16:22;21.30;67.30
32600;DHT22;19277;51.778;7.912;2023-05-13T05:18:47;21.40;67.60
32600;DHT22;19277;51.778;7.912;2023-05-13T05:21:13;21.40;66.80
32600;DHT22;19277;51.778;7.912;2023-05-13T05:23:39;21.50;66.50
32600;DHT22;19277;51.778;7.912;2023-05-13T05:26:04;21.50;66.40
32600;DHT22;19277;51.778;7.912;2023-05-13T05:28:30;21.60;66.20
32600;DHT22;19277;51.778;7.912;2023-05-13T05:30:56;21.60;65.80
32600;DHT22;19277;51.778;7.912;2023-05-13T05:33:22;21.70;65.80
32600;DHT22;19277;51.778;7.912;2023-05-13T05:35:48;21.70;65.90
32600;DHT22;19277;51.778;7.912;2023-05-13T05:38:14;21.70;65.70
32600;DHT22;19277;51.778;7.912;2023-05-13T05:40:42;21.70;66.20
32600;DHT22;19277;51.778;7.912;2023-05-13T05:43:08;21.60;66.30
32600;DHT22;19277;51.778;7.912;2023-05-13T05:45:36;21.50;66.70
32600;DHT22;19277;51.778;7.912;2023-05-13T05:48:02;21.40;67.00
32600;DHT22;19277;51.778;7.912;2023-05-13T05:50:28;21.30;67.50
32600;DHT22;19277;51.778;7.912;2023-05-13T05:52:53;21.30;68.20
32600;DHT22;19277;51.778;7.912;2023-05-13T05:55:20;21.40;67.90
32600;DHT22;19277;51.778;7.912;2023-05-13T05:57:45;21.60;67.60
32600;DHT22;19277;51.778;7.912;2023-05-13T06:00:11;21.60;66.80
32600;DHT22;19277;51.778;7.912;2023-05-13T06:02:37;21.60;67.20
32600;DHT22;19277;51.778;7.912;2023-05-13T06:05:03;21.50;66.70
32600;DHT22;19277;51.778;7.912;2023-05-13T06:07:29;21.50;67.20
32600;DHT22;19277;51.778;7.912;2023-05-13T06:09:54;21.60;67.20
32600;DHT22;19277;51.778;7.912;2023-05-13T06:12:20;21.60;66.70
32600;DHT22;19277;51.778;7.912;2023-05-13T06:14:47;21.70;66.70
32600;DHT22;19277;51.778;7.912;2023-05-13T06:17:13;21.80;66.50
32600;DHT22;19277;51.778;7.912;2023-05-13T06:19:39;22.00;65.50
32600;DHT22;19277;51.778;7.912;2023-05-13T06:22:07;21.90;66.20
32600;DHT22;19277;51.778;7.912;2023-05-13T06:24:33;22.00;65.10
32600;DHT22;19277;51.778;7.912;2023-05-13T06:26:58;22.00;64.30
32600;DHT22;19277;51.778;7.912;2023-05-13T06:29:24;22.10;64.50
32600;DHT22;19277;51.778;7.912;2023-05-13T06:31:49;22.20;64.70
32600;DHT22;19277;51.778;7.912;2023-05-13T06:34:15;22.20;64.10
32600;DHT22;19277;51.778;7.912;2023-05-13T06:36:42;22.20;64.30
32600;DHT22;19277;51.778;7.912;2023-05-13T06:39:08;22.20;64.80
32600;DHT22;19277;51.778;7.912;2023-05-13T06:41:36;22.20;64.60
32600;DHT22;19277;51.778;7.912;2023-05-13T06:44:02;22.30;64.70
32600;DHT22;19277;51.778;7.912;2023-05-13T06:46:27;22.30;64.40
32600;DHT22;19277;51.778;7.912;2023-05-13T06:48:53;22.40;64.20
32600;DHT22;19277;51.778;7.912;2023-05-13T06:51:21;22.40;64.20
32600;DHT22;19277;51.778;7.912;2023-05-13T06:53:46;22.50;64.40
32600;DHT22;19277;51.778;7.912;2023-05-13T06:56:12;22.60;64.30
32600;DHT22;19277;51.778;7.912;2023-05-13T06:58:38;22.60;63.50
32600;DHT22;19277;51.778;7.912;2023-05-13T07:01:03;22.60;64.00
32600;DHT22;19277;51.778;7.912;2023-05-13T07:03:29;22.70;64.30
32600;DHT22;19277;51.778;7.912;2023-05-13T07:05:54;22.70;63.20
32600;DHT22;19277;51.778;7.912;2023-05-13T07:08:20;22.80;63.70
32600;DHT22;19277;51.778;7.912;2023-05-13T07:10:46;22.80;63.70
32600;DHT22;19277;51.778;7.912;2023-05-13T07:13:12;22.70;63.60
32600;DHT22;19277;51.778;7.912;2023-05-13T07:15:37;22.80;63.40
32600;DHT22;19277;51.778;7.912;2023-05-13T07:18:03;22.80;62.70
32600;DHT22;19277;51.778;7.912;2023-05-13T07:20:28;22.80;63.20
32600;DHT22;19277;51.778;7.912;2023-05-13T07:22:54;22.80;62.80
32600;DHT22;19277;51.778;7.912;2023-05-13T07:25:20;22.90;63.00
32600;DHT22;19277;51.778;7.912;2023-05-13T07:27:45;22.90;62.70
32600;DHT22;19277;51.778;7.912;2023-05-13T07:30:12;22.80;62.40
32600;DHT22;19277;51.778;7.912;2023-05-13T07:32:38;22.80;63.20
32600;DHT22;19277;51.778;7.912;2023-05-13T07:35:05;22.90;63.30
32600;DHT22;19277;51.778;7.912;2023-05-13T07:37:30;22.90;63.50
32600;DHT22;19277;51.778;7.912;2023-05-13T07:39:56;22.90;63.30
32600;DHT22;19277;51.778;7.912;2023-05-13T07:42:23;22.90;62.60
32600;DHT22;19277;51.778;7.912;2023-05-13T07:44:49;22.90;62.80
32600;DHT22;19277;51.778;7.912;2023-05-13T07:47:14;22.90;62.90
32600;DHT22;19277;51.778;7.912;2023-05-13T07:49:40;22.90;62.20
32600;DHT22;19277;51.778;7.912;2023-05-13T07:52:05;22.90;61.40
32600;DHT22;19277;51.778;7.912;2023-05-13T07:54:31;23.00;62.20
32600;DHT22;19277;51.778;7.912;2023-05-13T07:56:57;22.90;62.20
32600;DHT22;19277;51.778;7.912;2023-05-13T07:59:23;22.90;61.70
32600;DHT22;19277;51.778;7.912;2023-05-13T08:01:48;22.90;61.50
32600;DHT22;19277;51.778;7.912;2023-05-13T08:04:14;22.90;62.40
32600;DHT22;19277;51.778;7.912;2023-05-13T08:06:39;22.80;61.30
32600;DHT22;19277;51.778;7.912;2023-05-13T08:09:05;22.80;61.80
32600;DHT22;19277;51.778;7.912;2023-05-13T08:11:30;22.80;61.80
32600;DHT22;19277;51.778;7.912;2023-05-13T08:13:56;22.80;62.00
32600;DHT22;19277;51.778;7.912;2023-05-13T08:16:22;22.80;62.40
32600;DHT22;19277;51.778;7.912;2023-05-13T08:18:47;22.70;61.90
32600;DHT22;19277;51.778;7.912;2023-05-13T08:21:13;22.70;62.40
32600;DHT22;19277;51.778;7.912;2023-05-13T08:23:39;22.70;62.00
32600;DHT22;19277;51.778;7.912;2023-05-13T08:26:04;22.70;61.70
32600;DHT22;19277;51.778;7.912;2023-05-13T08:28:32;22.70;60.50
32600;DHT22;19277;51.778;7.912;2023-05-13T08:30:58;22.60;59.40
32600;DHT22;19277;51.778;7.912;2023-05-13T08:33:28;22.60;60.90
32600;DHT22;19277;51.778;7.912;2023-05-13T08:35:54;22.60;59.70
32600;DHT22;19277;51.778;7.912;2023-05-13T08:38:20;22.50;60.70
32600;DHT22;19277;51.778;7.912;2023-05-13T08:40:46;22.50;60.40
32600;DHT22;19277;51.778;7.912;2023-05-13T08:43:14;22.50;60.60
32600;DHT22;19277;51.778;7.912;2023-05-13T08:45:41;22.50;61.00
32600;DHT22;19277;51.778;7.912;2023-05-13T08:48:08;22.60;61.60
32600;DHT22;19277;51.778;7.912;2023-05-13T08:50:35;22.60;61.30
32600;DHT22;19277;51.778;7.912;2023-05-13T08:53:01;22.60;61.60
32600;DHT22;19277;51.778;7.912;2023-05-13T08:55:27;22.60;62.20
32600;DHT22;19277;51.778;7.912;2023-05-13T08:57:53;22.60;62.00
32600;DHT22;19277;51.778;7.912;2023-05-13T09:00:19;22.50;62.70
32600;DHT22;19277;51.778;7.912;2023-05-13T09:02:45;22.50;62.20
32600;DHT22;19277;51.778;7.912;2023-05-13T09:05:11;22.50;63.10
32600;DHT22;19277;51.778;7.912;2023-05-13T09:07:38;22.50;62.70
32600;DHT22;19277;51.778;7.912;2023-05-13T09:10:07;22.50;62.10
32600;DHT22;19277;51.778;7.912;2023-05-13T09:12:53;22.60;62.70
32600;DHT22;19277;51.778;7.912;2023-05-13T09:15:22;22.50;62.10
32600;DHT22;19277;51.778;7.912;2023-05-13T09:17:51;22.50;62.40
32600;DHT22;19277;51.778;7.912;2023-05-13T09:20:19;22.40;62.60
32600;DHT22;19277;51.778;7.912;2023-05-13T09:22:49;22.50;63.10
32600;DHT22;19277;51.778;7.912;2023-05-13T09:25:17;22.50;61.60
32600;DHT22;19277;51.778;7.912;2023-05-13T09:27:50;22.50;62.50
32600;DHT22;19277;51.778;7.912;2023-05-13T09:30:16;22.50;62.70
32600;DHT22;19277;51.778;7.912;2023-05-13T09:32:42;22.50;62.80
32600;DHT22;19277;51.778;7.912;2023-05-13T09:35:15;22.50;62.70
32600;DHT22;19277;51.778;7.912;2023-05-13T09:37:47;22.50;62.20
32600;DHT22;19277;51.778;7.912;2023-05-13T09:40:16;22.60;61.70
32600;DHT22;19277;51.778;7.912;2023-05-13T09:42:45;22.50;62.20
32600;DHT22;19277;51.778;7.912;2023-05-13T09:45:12;22.50;62.00
32600;DHT22;19277;51.778;7.912;2023-05-13T09:47:39;22.60;61.70
32600;DHT22;19277;51.778;7.912;2023-05-13T09:50:06;22.60;61.70
32600;DHT22;19277;51.778;7.912;2023-05-13T09:52:34;22.50;62.50
32600;DHT22;19277;51.778;7.912;2023-05-13T09:55:00;22.60;62.30
32600;DHT22;19277;51.778;7.912;2023-05-13T09:57:29;22.50;62.60
32600;DHT22;19277;51.778;7.912;2023-05-13T09:59:56;22.60;62.30
32600;DHT22;19277;51.778;7.912;2023-05-13T10:02:23;22.60;62.50
32600;DHT22;19277;51.778;7.912;2023-05-13T10:04:50;22.60;61.80
32600;DHT22;19277;51.778;7.912;2023-05-13T10:07:17;22.60;62.10
32600;DHT22;19277;51.778;7.912;2023-05-13T10:09:50;22.60;62.50
32600;DHT22;19277;51.778;7.912;2023-05-13T10:12:18;22.60;62.10
32600;DHT22;19277;51.778;7.912;2023-05-13T10:14:47;22.60;62.20
32600;DHT22;19277;51.778;7.912;2023-05-13T10:17:14;22.70;62.20
32600;DHT22;19277;51.778;7.912;2023-05-13T10:19:40;22.70;61.00
32600;DHT22;19277;51.778;7.912;2023-05-13T10:22:06;22.70;61.10
32600;DHT22;19277;51.778;7.912;2023-05-13T10:24:32;22.60;62.00
32600;DHT22;19277;51.778;7.912;2023-05-13T10:26:59;22.60;62.30
32600;DHT22;19277;51.778;7.912;2023-05-13T10:29:27;22.60;61.40
32600;DHT22;19277;51.778;7.912;2023-05-13T10:31:54;22.70;61.20
32600;DHT22;19277;51.778;7.912;2023-05-13T10:34:20;22.70;61.70
32600;DHT22;19277;51.778;7.912;2023-05-13T10:42:40;22.70;61.30
32600;DHT22;19277;51.778;7.912;2023-05-13T10:45:09;22.70;61.50
32600;DHT22;19277;51.778;7.912;2023-05-13T10:47:35;22.70;60.50
32600;DHT22;19277;51.778;7.912;2023-05-13T10:50:23;22.70;60.40
32600;DHT22;19277;51.778;7.912;2023-05-13T10:52:49;22.70;60.90
32600;DHT22;19277;51.778;7.912;2023-05-13T10:55:19;22.70;60.80
32600;DHT22;19277;51.778;7.912;2023-05-13T10:58:07;22.80;60.90
32600;DHT22;19277;51.778;7.912;2023-05-13T11:00:33;22.80;60.20
32600;DHT22;19277;51.778;7.912;2023-05-13T11:06:32;22.80;60.20
32600;DHT22;19277;51.778;7.912;2023-05-13T11:08:40;22.80;60.80
32600;DHT22;19277;51.778;7.912;2023-05-13T11:11:29;22.80;60.70
32600;DHT22;19277;51.778;7.912;2023-05-13T11:14:06;22.80;59.80
32600;DHT22;19277;51.778;7.912;2023-05-13T11:16:33;22.80;60.10
32600;DHT22;19277;51.778;7.912;2023-05-13T11:19:01;22.80;59.60
32600;DHT22;19277;51.778;7.912;2023-05-13T11:21:32;22.80;59.50
32600;DHT22;19277;51.778;7.912;2023-05-13T11:24:03;22.90;59.70
32600;DHT22;19277;51.778;7.912;2023-05-13T11:29:14;22.80;59.50
32600;DHT22;19277;51.778;7.912;2023-05-13T11:31:48;22.90;59.00
32600;DHT22;19277;51.778;7.912;2023-05-13T11:34:18;22.90;59.90
32600;DHT22;19277;51.778;7.912;2023-05-13T11:36:54;22.90;60.20
32600;DHT22;19277;51.778;7.912;2023-05-13T11:39:21;22.90;59.30
32600;DHT22;19277;51.778;7.912;2023-05-13T11:41:49;22.90;60.70
32600;DHT22;19277;51.778;7.912;2023-05-13T11:44:19;22.90;59.40
32600;DHT22;19277;51.778;7.912;2023-05-13T11:46:59;22.90;59.70
32600;DHT22;19277;51.778;7.912;2023-05-13T11:52:03;23.00;59.20
32600;DHT22;19277;51.778;7.912;2023-05-13T11:54:28;23.00;59.70
32600;DHT22;19277;51.778;7.912;2023-05-13T11:56:54;22.90;59.50
32600;DHT22;19277;51.778;7.912;2023-05-13T11:59:21;23.00;59.40
32600;DHT22;19277;51.778;7.912;2023-05-13T12:01:58;23.00;59.30
32600;DHT22;19277;51.778;7.912;2023-05-13T12:04:28;23.00;59.20
32600;DHT22;19277;51.778;7.912;2023-05-13T12:06:54;23.00;58.60
32600;DHT22;19277;51.778;7.912;2023-05-13T12:09:23;23.00;59.30
32600;DHT22;19277;51.778;7.912;2023-05-13T12:11:52;23.00;60.40
32600;DHT22;19277;51.778;7.912;2023-05-13T12:14:19;23.10;59.30
32600;DHT22;19277;51.778;7.912;2023-05-13T12:16:45;23.10;57.60
32600;DHT22;19277;51.778;7.912;2023-05-13T12:19:11;23.10;58.60
32600;DHT22;19277;51.778;7.912;2023-05-13T12:21:37;23.10;57.70
32600;DHT22;19277;51.778;7.912;2023-05-13T12:24:16;23.20;58.70
32600;DHT22;19277;51.778;7.912;2023-05-13T12:26:42;23.20;58.90
32600;DHT22;19277;51.778;7.912;2023-05-13T12:29:08;23.20;58.10
32600;DHT22;19277;51.778;7.912;2023-05-13T12:31:33;23.30;58.50
32600;DHT22;19277;51.778;7.912;2023-05-13T12:33:59;23.30;58.40
32600;DHT22;19277;51.778;7.912;2023-05-13T12:36:27;23.30;58.40
32600;DHT22;19277;51.778;7.912;2023-05-13T12:41:33;23.40;58.70
32600;DHT22;19277;51.778;7.912;2023-05-13T12:44:11;23.40;58.60
32600;DHT22;19277;51.778;7.912;2023-05-13T12:46:54;23.40;58.40
32600;DHT22;19277;51.778;7.912;2023-05-13T12:49:25;23.40;58.00
32600;DHT22;19277;51.778;7.912;2023-05-13T12:51:50;23.40;56.80
32600;DHT22;19277;51.778;7.912;2023-05-13T12:54:16;23.30;57.30
32600;DHT22;19277;51.778;7.912;2023-05-13T12:56:43;23.30;57.70
32600;DHT22;19277;51.778;7.912;2023-05-13T12:59:08;23.20;57.50
32600;DHT22;19277;51.778;7.912;2023-05-13T13:01:34;23.20;57.80
32600;DHT22;19277;51.778;7.912;2023-05-13T13:04:00;23.20;57.70
32600;DHT22;19277;51.778;7.912;2023-05-13T13:06:26;23.20;57.90
32600;DHT22;19277;51.778;7.912;2023-05-13T13:08:51;23.20;57.60
32600;DHT22;19277;51.778;7.912;2023-05-13T13:11:17;23.20;57.70
32600;DHT22;19277;51.778;7.912;2023-05-13T13:13:44;23.30;58.00
32600;DHT22;19277;51.778;7.912;2023-05-13T13:16:10;23.30;57.90
32600;DHT22;19277;51.778;7.912;2023-05-13T13:18:35;23.30;57.70
32600;DHT22;19277;51.778;7.912;2023-05-13T13:21:01;23.40;57.60
32600;DHT22;19277;51.778;7.912;2023-05-13T13:23:27;23.40;57.30
32600;DHT22;19277;51.778;7.912;2023-05-13T13:25:52;23.40;58.00
32600;DHT22;19277;51.778;7.912;2023-05-13T13:28:18;23.50;58.20
32600;DHT22;19277;51.778;7.912;2023-05-13T13:30:44;23.40;57.90
32600;DHT22;19277;51.778;7.912;2023-05-13T13:33:14;23.50;56.80
32600;DHT22;19277;51.778;7.912;2023-05-13T13:35:42;23.50;56.40
32600;DHT22;19277;51.778;7.912;2023-05-13T13:38:07;23.50;56.80
32600;DHT22;19277;51.778;7.912;2023-05-13T13:40:33;23.60;56.60
32600;DHT22;19277;51.778;7.912;2023-05-13T13:43:01;23.60;56.60
32600;DHT22;19277;51.778;7.912;2023-05-13T13:45:26;23.60;56.60
32600;DHT22;19277;51.778;7.912;2023-05-13T13:47:52;23.60;56.80
32600;DHT22;19277;51.778;7.912;2023-05-13T13:50:17;23.60;56.50
32600;DHT22;19277;51.778;7.912;2023-05-13T13:52:43;23.70;56.60
32600;DHT22;19277;51.778;7.912;2023-05-13T13:55:09;23.70;56.30
32600;DHT22;19277;51.778;7.912;2023-05-13T13:57:36;23.70;56.10
32600;DHT22;19277;51.778;7.912;2023-05-13T14:00:02;23.60;55.60
32600;DHT22;19277;51.778;7.912;2023-05-13T14:02:28;23.60;55.20
32600;DHT22;19277;51.778;7.912;2023-05-13T14:04:53;23.60;56.30
32600;DHT22;19277;51.778;7.912;2023-05-13T14:07:19;23.60;54.80
32600;DHT22;19277;51.778;7.912;2023-05-13T14:09:44;23.50;55.20
32600;DHT22;19277;51.778;7.912;2023-05-13T14:12:10;23.50;54.80
32600;DHT22;19277;51.778;7.912;2023-05-13T14:14:36;23.50;54.40
32600;DHT22;19277;51.778;7.912;2023-05-13T14:17:01;23.50;55.00
32600;DHT22;19277;51.778;7.912;2023-05-13T14:19:27;23.50;56.20
32600;DHT22;19277;51.778;7.912;2023-05-13T14:21:52;23.40;56.30
32600;DHT22;19277;51.778;7.912;2023-05-13T14:24:18;23.40;56.20
32600;DHT22;19277;51.778;7.912;2023-05-13T14:26:44;23.40;56.60
32600;DHT22;19277;51.778;7.912;2023-05-13T14:29:09;23.30;56.80
32600;DHT22;19277;51.778;7.912;2023-05-13T14:31:35;23.30;57.40
32600;DHT22;19277;51.778;7.912;2023-05-13T14:34:00;23.30;56.90
32600;DHT22;19277;51.778;7.912;2023-05-13T14:36:26;23.20;57.20
32600;DHT22;19277;51.778;7.912;2023-05-13T14:38:52;23.20;57.60
32600;DHT22;19277;51.778;7.912;2023-05-13T14:41:18;23.20;57.90
32600;DHT22;19277;51.778;7.912;2023-05-13T14:43:45;23.20;58.30
32600;DHT22;19277;51.778;7.912;2023-05-13T14:46:12;23.20;58.30
32600;DHT22;19277;51.778;7.912;2023-05-13T14:48:37;23.20;58.20
32600;DHT22;19277;51.778;7.912;2023-05-13T14:51:03;23.20;58.30
32600;DHT22;19277;51.778;7.912;2023-05-13T14:53:29;23.20;58.00
32600;DHT22;19277;51.778;7.912;2023-05-13T14:55:55;23.30;58.30
32600;DHT22;19277;51.778;7.912;2023-05-13T14:58:20;23.30;57.40
32600;DHT22;19277;51.778;7.912;2023-05-13T15:00:46;23.40;57.20
32600;DHT22;19277;51.778;7.912;2023-05-13T15:03:12;23.40;56.40
32600;DHT22;19277;51.778;7.912;2023-05-13T15:05:40;23.40;56.30
32600;DHT22;19277;51.778;7.912;2023-05-13T15:08:09;23.40;54.30
32600;DHT22;19277;51.778;7.912;2023-05-13T15:10:35;23.40;56.30
32600;DHT22;19277;51.778;7.912;2023-05-13T15:13:01;23.40;55.40
32600;DHT22;19277;51.778;7.912;2023-05-13T15:15:26;23.40;55.20
32600;DHT22;19277;51.778;7.912;2023-05-13T15:17:52;23.40;55.60
32600;DHT22;19277;51.778;7.912;2023-05-13T15:20:17;23.40;55.20
32600;DHT22;19277;51.778;7.912;2023-05-13T15:22:43;23.40;55.70
32600;DHT22;19277;51.778;7.912;2023-05-13T15:25:09;23.40;55.30
32600;DHT22;19277;51.778;7.912;2023-05-13T15:27:35;23.40;54.90
32600;DHT22;19277;51.778;7.912;2023-05-13T15:30:01;23.40;54.10
32600;DHT22;19277;51.778;7.912;2023-05-13T15:32:26;23.40;54.30
32600;DHT22;19277;51.778;7.912;2023-05-13T15:34:52;23.40;53.90
32600;DHT22;19277;51.778;7.912;2023-05-13T15:37:17;23.30;54.60
32600;DHT22;19277;51.778;7.912;2023-05-13T15:39:43;23.30;55.00
32600;DHT22;19277;51.778;7.912;2023-05-13T15:42:09;23.20;54.70
32600;DHT22;19277;51.778;7.912;2023-05-13T15:44:34;23.30;55.00
32600;DHT22;19277;51.778;7.912;2023-05-13T15:47:00;23.30;54.90
32600;DHT22;19277;51.778;7.912;2023-05-13T15:49:28;23.30;55.20
32600;DHT22;19277;51.778;7.912;2023-05-13T15:51:53;23.40;55.10